createdAt,value
2022-11-21T00:01:59.358Z,99388.84
2022-11-21T00:04:27.691Z,99384.63
2022-11-21T00:06:55.453Z,99382.19
2022-11-21T00:09:23.400Z,99380.06
2022-11-21T00:11:52.709Z,99388.06
2022-11-21T00:14:20.584Z,99381.06
2022-11-21T00:16:49.500Z,99386.38
2022-11-21T00:19:19.944Z,99381.50
2022-11-21T00:21:47.402Z,99382.63
2022-11-21T00:24:15.314Z,99375.16
2022-11-21T00:26:42.799Z,99388.16
2022-11-21T00:29:11.000Z,99395.50
2022-11-21T00:31:38.532Z,99387.59
2022-11-21T00:34:06.404Z,99377.50
2022-11-21T00:36:33.892Z,99381.69
2022-11-21T00:39:01.699Z,99379.84
2022-11-21T00:41:29.211Z,99385.38
2022-11-21T00:43:57.060Z,99387.13
2022-11-21T00:46:24.526Z,99379.88
2022-11-21T00:48:52.313Z,99379.00
2022-11-21T00:51:19.824Z,99369.88
2022-11-21T00:53:47.793Z,99375.00
2022-11-21T00:56:15.252Z,99375.25
2022-11-21T00:58:43.092Z,99374.25
2022-11-21T01:01:15.287Z,99367.28
2022-11-21T01:03:43.491Z,99371.03
2022-11-21T01:06:14.398Z,99372.34
2022-11-21T01:08:45.180Z,99374.13
2022-11-21T01:11:16.754Z,99368.75
2022-11-21T01:13:45.788Z,99371.75
2022-11-21T01:16:18.852Z,99362.66
2022-11-21T01:18:47.409Z,99358.75
2022-11-21T01:21:17.733Z,99361.88
2022-11-21T01:23:46.110Z,99367.44
2022-11-21T01:26:23.429Z,99374.75
2022-11-21T01:28:51.926Z,99364.06
2022-11-21T01:31:29.249Z,99356.53
2022-11-21T01:34:00.371Z,99366.06
2022-11-21T01:36:31.419Z,99367.72
2022-11-21T01:39:02.593Z,99370.72
2022-11-21T01:41:42.935Z,99366.06
2022-11-21T01:44:20.283Z,99359.38
2022-11-21T01:46:49.639Z,99365.81
2022-11-21T01:49:29.491Z,99373.59
2022-11-21T01:52:25.566Z,99366.94
2022-11-21T01:55:09.986Z,99358.28
2022-11-21T01:57:48.523Z,99383.88
2022-11-21T02:00:27.464Z,99365.75
2022-11-21T02:03:02.251Z,99352.22
2022-11-21T02:05:35.382Z,99375.97
2022-11-21T02:08:09.981Z,99361.56
2022-11-21T02:10:42.513Z,99356.69
2022-11-21T02:13:10.167Z,99359.34
2022-11-21T02:15:38.106Z,99355.72
2022-11-21T02:18:09.716Z,99349.75
2022-11-21T02:20:40.248Z,99353.31
2022-11-21T02:23:33.968Z,99355.56
2022-11-21T02:26:01.885Z,99346.94
2022-11-21T02:28:29.672Z,99341.94
2022-11-21T02:30:57.462Z,99335.19
2022-11-21T02:33:24.911Z,99333.09
2022-11-21T02:36:01.041Z,99351.16
2022-11-21T02:38:36.819Z,99344.44
2022-11-21T02:41:14.912Z,99339.75
2022-11-21T02:43:54.844Z,99344.75
2022-11-21T02:46:22.735Z,99340.88
2022-11-21T02:48:50.207Z,99337.81
2022-11-21T02:51:18.034Z,99332.50
2022-11-21T02:53:46.330Z,99340.72
2022-11-21T02:56:14.215Z,99336.78
2022-11-21T02:58:42.079Z,99337.03
2022-11-21T03:01:09.954Z,99353.25
2022-11-21T03:03:37.502Z,99351.94
2022-11-21T03:06:05.396Z,99339.06
2022-11-21T03:08:32.953Z,99350.75
2022-11-21T03:11:00.727Z,99336.47
2022-11-21T03:13:28.201Z,99340.34
2022-11-21T03:15:56.342Z,99343.31
2022-11-21T03:18:23.841Z,99343.00
2022-11-21T03:20:51.678Z,99350.88
2022-11-21T03:23:19.245Z,99345.19
2022-11-21T03:25:47.045Z,99352.84
2022-11-21T03:28:14.601Z,99353.41
2022-11-21T03:30:42.578Z,99345.88
2022-11-21T03:33:10.043Z,99351.41
2022-11-21T03:35:37.776Z,99345.19
2022-11-21T03:38:05.306Z,99354.06
2022-11-21T03:40:33.395Z,99356.47
2022-11-21T03:43:06.305Z,99352.69
2022-11-21T03:45:34.340Z,99349.84
2022-11-21T03:48:01.912Z,99352.75
2022-11-21T03:50:29.653Z,99357.88
2022-11-21T03:52:57.077Z,99351.44
2022-11-21T03:55:24.898Z,99352.34
2022-11-21T03:57:52.389Z,99357.88
2022-11-21T04:00:20.273Z,99350.88
2022-11-21T04:03:06.444Z,99347.75
2022-11-21T04:05:34.279Z,99355.25
2022-11-21T04:08:01.756Z,99343.50
2022-11-21T04:10:29.538Z,99351.16
2022-11-21T04:12:57.063Z,99340.97
2022-11-21T04:15:24.824Z,99355.16
2022-11-21T04:17:53.126Z,99362.06
2022-11-21T04:20:20.942Z,99361.59
2022-11-21T04:22:49.626Z,99364.72
2022-11-21T04:25:17.567Z,99358.94
2022-11-21T04:27:45.060Z,99359.84
2022-11-21T04:30:16.140Z,99362.28
2022-11-21T04:32:44.341Z,99357.63
2022-11-21T04:35:12.063Z,99373.59
2022-11-21T04:37:39.842Z,99375.81
2022-11-21T04:40:08.377Z,99369.91
2022-11-21T04:42:35.848Z,99377.41
2022-11-21T04:45:04.429Z,99372.84
2022-11-21T04:47:31.886Z,99367.34
2022-11-21T04:49:59.700Z,99375.13
2022-11-21T04:52:27.253Z,99380.22
2022-11-21T04:54:55.121Z,99379.59
2022-11-21T04:57:23.345Z,99377.38
2022-11-21T04:59:51.166Z,99384.44
2022-11-21T05:02:18.730Z,99384.38
2022-11-21T05:04:46.630Z,99381.94
2022-11-21T05:07:14.931Z,99382.84
2022-11-21T05:09:42.791Z,99385.84
2022-11-21T05:12:29.914Z,99389.25
2022-11-21T05:14:57.744Z,99393.63
2022-11-21T05:17:25.218Z,99387.59
2022-11-21T05:19:53.049Z,99391.16
2022-11-21T05:22:20.711Z,99407.59
2022-11-21T05:24:48.516Z,99408.28
2022-11-21T05:27:15.988Z,99404.53
2022-11-21T05:29:43.947Z,99405.75
2022-11-21T05:32:11.510Z,99400.88
2022-11-21T05:34:39.357Z,99411.25
2022-11-21T05:37:07.031Z,99417.38
2022-11-21T05:39:34.945Z,99417.53
2022-11-21T05:42:03.313Z,99433.88
2022-11-21T05:44:31.538Z,99429.31
2022-11-21T05:46:59.331Z,99419.41
2022-11-21T05:49:27.160Z,99432.94
2022-11-21T05:51:55.070Z,99423.63
2022-11-21T05:54:22.934Z,99454.16
2022-11-21T05:56:50.478Z,99433.25
2022-11-21T05:59:18.278Z,99441.06
2022-11-21T06:02:04.470Z,99443.31
2022-11-21T06:04:32.421Z,99451.81
2022-11-21T06:07:00.039Z,99454.53
2022-11-21T06:09:28.094Z,99452.50
2022-11-21T06:11:55.589Z,99454.09
2022-11-21T06:14:23.473Z,99454.53
2022-11-21T06:16:51.608Z,99461.56
2022-11-21T06:19:19.483Z,99466.63
2022-11-21T06:21:46.969Z,99468.16
2022-11-21T06:24:19.393Z,99468.03
2022-11-21T06:26:49.315Z,99470.94
2022-11-21T06:29:17.114Z,99479.06
2022-11-21T06:31:44.593Z,99484.66
2022-11-21T06:34:12.524Z,99482.16
2022-11-21T06:36:39.992Z,99485.13
2022-11-21T06:39:07.924Z,99482.16
2022-11-21T06:41:35.648Z,99498.03
2022-11-21T06:44:03.482Z,99491.31
2022-11-21T06:46:30.980Z,99503.19
2022-11-21T06:48:58.807Z,99497.56
2022-11-21T06:51:26.690Z,99505.03
2022-11-21T06:53:57.350Z,99511.03
2022-11-21T06:56:26.627Z,99519.31
2022-11-21T06:58:54.563Z,99507.28
2022-11-21T07:01:23.289Z,99497.34
2022-11-21T07:03:51.835Z,99512.06
2022-11-21T07:06:19.504Z,99520.78
2022-11-21T07:08:52.450Z,99512.88
2022-11-21T07:11:27.636Z,99519.41
2022-11-21T07:13:56.515Z,99524.59
2022-11-21T07:16:26.322Z,99519.25
2022-11-21T07:18:54.418Z,99512.25
2022-11-21T07:21:21.989Z,99513.81
2022-11-21T07:23:49.833Z,99523.41
2022-11-21T07:26:17.833Z,99523.03
2022-11-21T07:28:45.710Z,99514.41
2022-11-21T07:31:14.370Z,99509.69
2022-11-21T07:33:46.945Z,99507.47
2022-11-21T07:36:14.786Z,99506.69
2022-11-21T07:38:42.684Z,99512.94
2022-11-21T07:41:10.747Z,99515.19
2022-11-21T07:43:38.713Z,99518.94
2022-11-21T07:46:06.269Z,99520.66
2022-11-21T07:48:33.584Z,99524.22
2022-11-21T07:51:05.211Z,99525.72
2022-11-21T07:53:32.773Z,99532.69
2022-11-21T07:56:00.884Z,99540.97
2022-11-21T07:58:28.468Z,99538.53
2022-11-21T08:00:56.454Z,99543.97
2022-11-21T08:03:25.365Z,99534.22
2022-11-21T08:05:53.228Z,99529.94
2022-11-21T08:08:20.678Z,99552.25
2022-11-21T08:10:48.607Z,99546.63
2022-11-21T08:13:16.123Z,99551.75
2022-11-21T08:15:44.108Z,99552.00
2022-11-21T08:18:19.168Z,99559.13
2022-11-21T08:20:47.708Z,99557.72
2022-11-21T08:23:16.019Z,99552.38
2022-11-21T08:25:44.002Z,99553.28
2022-11-21T08:28:12.563Z,99560.28
2022-11-21T08:30:41.014Z,99563.84
2022-11-21T08:33:08.808Z,99560.09
2022-11-21T08:35:40.245Z,99555.22
2022-11-21T08:38:08.259Z,99573.81
2022-11-21T08:40:36.539Z,99565.63
2022-11-21T08:43:09.626Z,99562.66
2022-11-21T08:45:39.783Z,99558.56
2022-11-21T08:48:13.042Z,99568.25
2022-11-21T08:50:41.052Z,99582.25
2022-11-21T08:53:08.406Z,99571.34
2022-11-21T08:55:36.203Z,99568.25
2022-11-21T08:58:03.784Z,99558.94
2022-11-21T09:00:31.593Z,99566.03
2022-11-21T09:03:03.877Z,99576.03
2022-11-21T09:05:33.287Z,99576.88
2022-11-21T09:08:00.705Z,99572.66
2022-11-21T09:10:29.515Z,99574.34
2022-11-21T09:13:00.523Z,99575.88
2022-11-21T09:15:48.055Z,99586.75
2022-11-21T09:18:15.612Z,99582.03
2022-11-21T09:20:47.526Z,99583.69
2022-11-21T09:23:17.205Z,99577.59
2022-11-21T09:25:45.523Z,99579.81
2022-11-21T09:28:14.503Z,99571.34
2022-11-21T09:30:43.775Z,99579.81
2022-11-21T09:33:14.282Z,99567.84
2022-11-21T09:35:42.427Z,99568.28
2022-11-21T09:38:10.198Z,99568.31
2022-11-21T09:40:47.156Z,99570.91
2022-11-21T09:43:29.428Z,99567.69
2022-11-21T09:46:17.468Z,99561.91
2022-11-21T09:48:58.456Z,99561.28
2022-11-21T09:51:31.043Z,99558.44
2022-11-21T09:54:03.839Z,99563.75
2022-11-21T09:56:38.772Z,99560.00
2022-11-21T09:59:32.744Z,99554.13
2022-11-21T10:02:00.921Z,99557.56
2022-11-21T10:04:29.912Z,99547.47
2022-11-21T10:07:17.037Z,99554.03
2022-11-21T10:10:22.751Z,99547.88
2022-11-21T10:13:36.858Z,99540.81
2022-11-21T10:16:26.380Z,99540.06
2022-11-21T10:19:12.952Z,99532.19
2022-11-21T10:22:05.967Z,99534.28
2022-11-21T10:24:33.682Z,99547.66
2022-11-21T10:27:16.102Z,99539.75
2022-11-21T10:30:16.810Z,99529.66
2022-11-21T10:33:20.326Z,99517.84
2022-11-21T10:35:57.691Z,99527.31
2022-11-21T10:38:30.968Z,99516.78
2022-11-21T10:41:24.089Z,99517.41
2022-11-21T10:44:43.922Z,99511.41
2022-11-21T10:47:29.698Z,99512.28
2022-11-21T10:50:40.414Z,99509.31
2022-11-21T10:53:37.822Z,99503.09
2022-11-21T10:56:14.670Z,99504.84
2022-11-21T10:58:46.417Z,99498.97
2022-11-21T11:01:30.844Z,99513.97
2022-11-21T11:07:13.780Z,99502.31
2022-11-21T11:09:46.942Z,99492.41
2022-11-21T11:12:50.749Z,99490.28
2022-11-21T11:15:28.124Z,99513.50
2022-11-21T11:18:08.773Z,99513.19
2022-11-21T11:20:45.615Z,99497.53
2022-11-21T11:23:25.588Z,99498.63
2022-11-21T11:25:58.416Z,99487.84
2022-11-21T11:28:34.197Z,99493.94
2022-11-21T11:31:02.231Z,99491.94
2022-11-21T11:33:36.674Z,99481.03
2022-11-21T11:36:15.618Z,99489.69
2022-11-21T11:38:58.389Z,99490.25
2022-11-21T11:42:06.687Z,99488.09
2022-11-21T11:45:33.538Z,99493.09
2022-11-21T11:48:10.572Z,99499.13
2022-11-21T11:50:50.570Z,99504.69
2022-11-21T11:53:26.785Z,99498.59
2022-11-21T11:56:01.117Z,99504.50
2022-11-21T11:58:43.879Z,99498.16
2022-11-21T12:01:29.871Z,99490.94
2022-11-21T12:04:30.341Z,99482.59
2022-11-21T12:10:20.973Z,99474.59
2022-11-21T12:13:03.266Z,99487.81
2022-11-21T12:15:52.801Z,99472.66
2022-11-21T12:18:24.328Z,99475.84
2022-11-21T12:21:10.318Z,99481.41
2022-11-21T12:23:48.600Z,99476.56
2022-11-21T12:26:40.291Z,99485.00
2022-11-21T12:29:35.189Z,99497.25
2022-11-21T12:33:00.213Z,99491.28
2022-11-21T12:35:37.169Z,99491.50
2022-11-21T12:38:44.756Z,99489.72
2022-11-21T12:41:54.418Z,99501.06
2022-11-21T12:44:49.565Z,99506.63
2022-11-21T12:48:29.691Z,99510.41
2022-11-21T12:51:55.540Z,99508.50
2022-11-21T12:54:52.757Z,99512.72
2022-11-21T12:57:26.806Z,99514.88
2022-11-21T13:00:15.456Z,99506.72
2022-11-21T13:03:15.949Z,99518.19
2022-11-21T13:05:49.895Z,99516.59
2022-11-21T13:08:29.920Z,99524.84
2022-11-21T13:11:48.923Z,99525.75
2022-11-21T13:14:27.297Z,99528.41
2022-11-21T13:17:19.052Z,99522.06
2022-11-21T13:20:06.072Z,99522.63
2022-11-21T13:22:36.268Z,99519.94
2022-11-21T13:25:29.388Z,99531.41
2022-11-21T13:28:19.656Z,99526.69
2022-11-21T13:30:52.021Z,99517.81
2022-11-21T13:33:37.529Z,99526.28
2022-11-21T13:36:12.384Z,99524.19
2022-11-21T13:38:52.974Z,99523.75
2022-11-21T13:41:54.722Z,99529.31
2022-11-21T13:44:31.486Z,99540.09
2022-11-21T13:47:27.473Z,99543.88
2022-11-21T13:50:19.892Z,99542.88
2022-11-21T13:53:22.549Z,99538.66
2022-11-21T13:56:28.023Z,99537.53
2022-11-21T13:59:21.577Z,99528.19
2022-11-21T14:02:03.598Z,99525.38
2022-11-21T14:04:54.656Z,99529.72
2022-11-21T14:07:33.084Z,99539.28
2022-11-21T14:10:24.090Z,99541.31
2022-11-21T14:12:55.179Z,99546.66
2022-11-21T14:15:36.588Z,99538.31
2022-11-21T14:18:04.654Z,99545.75
2022-11-21T14:20:49.560Z,99550.22
2022-11-21T14:23:21.373Z,99552.25
2022-11-21T14:26:00.215Z,99555.13
2022-11-21T14:28:31.041Z,99560.47
2022-11-21T14:31:04.583Z,99551.78
2022-11-21T14:33:35.198Z,99550.09
2022-11-21T14:36:27.243Z,99560.00
2022-11-21T14:39:34.576Z,99562.91
2022-11-21T14:42:01.011Z,99565.88
2022-11-21T14:44:31.944Z,99560.69
2022-11-21T14:47:26.744Z,99569.81
2022-11-21T14:49:59.804Z,99568.03
2022-11-21T14:52:33.135Z,99568.47
2022-11-21T14:57:53.782Z,99570.69
2022-11-21T15:00:57.460Z,99568.03
2022-11-21T15:03:23.120Z,99574.22
2022-11-21T15:06:05.787Z,99586.44
2022-11-21T15:09:52.723Z,99588.69
2022-11-21T15:11:44.206Z,99590.00
2022-11-21T15:14:58.441Z,99594.69
2022-11-21T15:17:26.951Z,99602.34
2022-11-21T15:20:12.795Z,99593.31
2022-11-21T15:22:42.519Z,99594.00
2022-11-21T15:25:24.034Z,99598.56
2022-11-21T15:27:53.215Z,99595.69
2022-11-21T15:30:39.321Z,99593.72
2022-11-21T15:33:21.447Z,99594.50
2022-11-21T15:35:56.052Z,99584.59
2022-11-21T15:39:03.750Z,99587.50
2022-11-21T15:41:35.108Z,99583.81
2022-11-21T15:44:02.562Z,99598.94
2022-11-21T15:46:41.877Z,99596.59
2022-11-21T15:52:09.793Z,99594.00
2022-11-21T15:54:48.447Z,99586.66
2022-11-21T15:57:10.924Z,99587.47
2022-11-21T15:59:46.292Z,99584.88
2022-11-21T16:02:15.032Z,99596.56
2022-11-21T16:04:42.726Z,99587.78
2022-11-21T16:07:10.762Z,99600.00
2022-11-21T16:09:39.073Z,99597.13
2022-11-21T16:12:07.017Z,99598.03
2022-11-21T16:14:34.577Z,99599.34
2022-11-21T16:17:02.459Z,99597.00
2022-11-21T16:19:30.350Z,99599.78
2022-11-21T16:21:58.983Z,99596.78
2022-11-21T16:24:27.192Z,99603.22
2022-11-21T16:26:57.432Z,99608.00
2022-11-21T16:29:24.999Z,99599.78
2022-11-21T16:31:55.863Z,99605.34
2022-11-21T16:34:23.430Z,99612.09
2022-11-21T16:36:51.656Z,99603.88
2022-11-21T16:39:19.178Z,99606.31
2022-11-21T16:41:49.136Z,99606.00
2022-11-21T16:44:16.916Z,99601.31
2022-11-21T16:46:48.172Z,99605.13
2022-11-21T16:49:16.068Z,99609.44
2022-11-21T16:51:44.237Z,99602.34
2022-11-21T16:54:11.864Z,99611.06
2022-11-21T16:56:39.810Z,99607.06
2022-11-21T16:59:07.307Z,99613.50
2022-11-21T17:01:36.343Z,99611.41
2022-11-21T17:04:04.794Z,99622.19
2022-11-21T17:06:32.966Z,99619.06
2022-11-21T17:09:02.064Z,99616.75
2022-11-21T17:11:32.385Z,99615.41
2022-11-21T17:14:04.637Z,99609.63
2022-11-21T17:16:34.520Z,99612.84
2022-11-21T17:19:03.385Z,99608.81
2022-11-21T17:21:32.358Z,99605.38
2022-11-21T17:24:00.697Z,99610.50
2022-11-21T17:26:30.356Z,99613.16
2022-11-21T17:29:01.152Z,99598.06
2022-11-21T17:31:29.288Z,99581.38
2022-11-21T17:33:58.084Z,99585.13
2022-11-21T17:36:28.211Z,99588.81
2022-11-21T17:38:56.730Z,99586.78
2022-11-21T17:41:26.260Z,99587.75
2022-11-21T17:43:56.260Z,99598.88
2022-11-21T17:46:25.789Z,99601.09
2022-11-21T17:48:57.666Z,99599.09
2022-11-21T17:51:33.552Z,99587.75
2022-11-21T17:54:02.038Z,99596.19
2022-11-21T17:56:33.352Z,99598.63
2022-11-21T17:59:01.810Z,99588.16
2022-11-21T18:01:31.937Z,99594.06
2022-11-21T18:04:13.339Z,99597.50
2022-11-21T18:06:44.874Z,99595.97
2022-11-21T18:09:13.871Z,99599.72
2022-11-21T18:11:41.951Z,99598.84
2022-11-21T18:14:14.101Z,99595.97
2022-11-21T18:16:51.076Z,99589.16
2022-11-21T18:19:21.321Z,99592.53
2022-11-21T18:21:49.095Z,99597.06
2022-11-21T18:24:16.494Z,99591.84
2022-11-21T18:26:44.197Z,99598.84
2022-11-21T18:31:59.437Z,99606.91
2022-11-21T18:34:26.794Z,99603.00
2022-11-21T18:36:54.677Z,99609.16
2022-11-21T18:39:24.983Z,99613.03
2022-11-21T18:41:54.862Z,99612.59
2022-11-21T18:44:22.969Z,99615.72
2022-11-21T18:46:51.451Z,99614.72
2022-11-21T18:49:18.865Z,99621.97
2022-11-21T18:51:48.102Z,99622.94
2022-11-21T18:54:17.119Z,99617.94
2022-11-21T18:57:04.687Z,99610.63
2022-11-21T18:59:33.196Z,99617.63
2022-11-21T19:02:02.364Z,99612.53
2022-11-21T19:04:29.839Z,99615.09
2022-11-21T19:06:57.539Z,99617.69
2022-11-21T19:09:29.416Z,99609.50
2022-11-21T19:11:59.966Z,99608.72
2022-11-21T19:14:27.584Z,99609.34
2022-11-21T19:16:55.617Z,99609.13
2022-11-21T19:19:34.165Z,99611.78
2022-11-21T19:22:04.721Z,99607.09
2022-11-21T19:24:32.213Z,99609.13
2022-11-21T19:26:59.967Z,99588.31
2022-11-21T19:29:27.550Z,99591.44
2022-11-21T19:31:55.990Z,99594.44
2022-11-21T19:34:23.386Z,99598.44
2022-11-21T19:36:51.519Z,99606.44
2022-11-21T19:39:18.912Z,99595.75
2022-11-21T19:41:49.152Z,99588.84
2022-11-21T19:44:16.671Z,99590.31
2022-11-21T19:46:44.384Z,99580.09
2022-11-21T19:49:12.289Z,99583.41
2022-11-21T19:51:41.886Z,99579.53
2022-11-21T19:54:11.461Z,99583.28
2022-11-21T19:56:40.404Z,99584.88
2022-11-21T19:59:10.354Z,99582.63
2022-11-21T20:01:38.296Z,99586.88
2022-11-21T20:04:06.657Z,99590.84
2022-11-21T20:06:41.590Z,99588.41
2022-11-21T20:09:11.582Z,99591.28
2022-11-21T20:11:40.744Z,99594.38
2022-11-21T20:14:08.331Z,99590.84
2022-11-21T20:16:38.665Z,99596.06
2022-11-21T20:19:17.505Z,99594.56
2022-11-21T20:21:45.992Z,99605.88
2022-11-21T20:24:14.020Z,99603.41
2022-11-21T20:26:42.082Z,99607.22
2022-11-21T20:29:12.201Z,99607.06
2022-11-21T20:31:40.208Z,99606.63
2022-11-21T20:34:12.563Z,99607.88
2022-11-21T20:36:41.220Z,99601.72
2022-11-21T20:39:13.735Z,99600.31
2022-11-21T20:41:41.766Z,99606.53
2022-11-21T20:45:07.199Z,99598.81
2022-11-21T20:47:04.753Z,99602.81
2022-11-21T20:49:33.128Z,99613.91
2022-11-21T20:54:48.510Z,99613.25
2022-11-21T20:57:18.713Z,99621.28
2022-11-21T20:59:46.250Z,99617.53
2022-11-21T21:02:15.004Z,99617.56
2022-11-21T21:04:42.638Z,99620.28
2022-11-21T21:07:10.534Z,99615.63
2022-11-21T21:09:38.036Z,99620.31
2022-11-21T21:12:05.915Z,99618.94
2022-11-21T21:14:33.336Z,99620.97
2022-11-21T21:17:01.136Z,99622.78
2022-11-21T21:19:29.048Z,99619.44
2022-11-21T21:21:57.249Z,99617.63
2022-11-21T21:24:26.485Z,99611.97
2022-11-21T21:26:55.344Z,99618.94
2022-11-21T21:29:22.830Z,99616.13
2022-11-21T21:32:10.193Z,99605.22
2022-11-21T21:34:37.947Z,99610.13
2022-11-21T21:37:05.799Z,99598.88
2022-11-21T21:39:33.377Z,99602.09
2022-11-21T21:42:01.550Z,99603.84
2022-11-21T21:44:33.502Z,99610.50
2022-11-21T21:47:02.043Z,99604.22
2022-11-21T21:49:30.390Z,99610.53
2022-11-21T21:51:58.368Z,99606.66
2022-11-21T21:54:27.184Z,99598.22
2022-11-21T21:56:55.832Z,99593.19
2022-11-21T21:59:23.355Z,99594.94
2022-11-21T22:01:51.832Z,99596.84
2022-11-21T22:04:19.413Z,99597.59
2022-11-21T22:06:47.312Z,99589.75
2022-11-21T22:09:14.756Z,99589.41
2022-11-21T22:11:42.789Z,99589.09
2022-11-21T22:14:15.356Z,99593.31
2022-11-21T22:16:43.561Z,99581.09
2022-11-21T22:19:11.391Z,99587.22
2022-11-21T22:21:39.222Z,99589.56
2022-11-21T22:24:25.463Z,99586.44
2022-11-21T22:26:53.993Z,99586.91
2022-11-21T22:29:22.595Z,99580.00
2022-11-21T22:31:51.086Z,99574.69
2022-11-21T22:34:18.901Z,99580.31
2022-11-21T22:36:46.986Z,99579.56
2022-11-21T22:39:15.805Z,99580.97
2022-11-21T22:41:46.378Z,99564.09
2022-11-21T22:44:15.972Z,99560.31
2022-11-21T22:46:43.422Z,99560.31
2022-11-21T22:49:11.201Z,99563.44
2022-11-21T22:51:38.631Z,99556.53
2022-11-21T22:54:06.603Z,99548.88
2022-11-21T22:56:34.123Z,99555.78
2022-11-21T22:59:01.858Z,99542.00
2022-11-21T23:01:29.387Z,99548.88
2022-11-21T23:03:57.272Z,99534.47
2022-11-21T23:06:26.556Z,99543.56
2022-11-21T23:08:57.433Z,99537.44
2022-11-21T23:11:36.243Z,99529.00
2022-11-21T23:14:07.918Z,99529.78
2022-11-21T23:16:35.498Z,99527.44
2022-11-21T23:19:03.299Z,99534.03
2022-11-21T23:21:30.757Z,99524.47
2022-11-21T23:23:58.426Z,99525.34
2022-11-21T23:26:25.852Z,99517.69
2022-11-21T23:28:55.852Z,99512.50
2022-11-21T23:31:23.399Z,99514.50
2022-11-21T23:33:51.181Z,99513.38
2022-11-21T23:36:18.556Z,99514.16
2022-11-21T23:38:46.290Z,99513.38
2022-11-21T23:41:13.797Z,99514.16
2022-11-21T23:43:41.472Z,99517.16
2022-11-21T23:46:09.037Z,99511.81
2022-11-21T23:48:36.700Z,99499.19
2022-11-21T23:51:04.286Z,99504.03
2022-11-21T23:53:31.992Z,99496.25
2022-11-21T23:55:59.680Z,99503.91
2022-11-21T23:58:27.905Z,99487.47
